• Join FlightAware (Why Join?)
  • Login
  • US Flag GB Flag 
14:18 EDT


 

Airport Tracker/Info


-or-


 

Live Flight TrackerFlight Track Log ✈ EJM685 ✈ 20-Oct-2013 ✈ KTEB - KBRO

Flight Track Log - Related Links

Times and Time Zones

All times are in EDT time to prevent confusion due to time zone crossing. See the EJM685 flight status page for this flight to view local times or setup timezone preferences in your user account.

Time Position Orientation Groundspeed Altitude Reporting Facility
EDT Latitude Longitude Course Direction KTS MPH feet Rate Location/Type
17:39 40.8333 -74.0833 252° West 166 191 1,100  Level New York TRACON
17:40 40.8167 -74.1500 252° West 190 219 1,900 2,280 Climbing New York TRACON
17:41 40.8167 -74.2333 270° West 244 281 5,700 3,900 Climbing New York TRACON
17:42 40.8167 -74.3167 270° West 263 303 9,800 2,940 Climbing New York TRACON
17:44 40.8056 -74.4775 265° West 278 320 13,300 2,340 Climbing New York Center
17:45 40.7628 -74.5794 241° Southwest 298 343 15,900 2,700 Climbing New York Center
17:46 40.7200 -74.6728 239° Southwest 325 374 18,800 3,060 Climbing New York Center
17:47 40.6681 -74.7956 241° Southwest 335 386 22,100 3,000 Climbing New York Center
17:48 40.6161 -74.9075 239° Southwest 343 395 24,800 2,640 Climbing New York Center
17:49 40.5561 -75.0186 235° Southwest 371 427 27,400 2,580 Climbing New York Center
17:50 40.4936 -75.1292 233° Southwest 376 433 30,000 2,280 Climbing New York Center
17:51 40.4311 -75.2425 234° Southwest 387 445 32,000 2,160 Climbing New York Center
17:52 40.3686 -75.3503 233° Southwest 387 445 34,400 2,400 Climbing New York Center
17:53 40.3058 -75.4606 233° Southwest 387 445 36,900 2,520 Climbing New York Center
17:54 40.2475 -75.5653 234° Southwest 380 437 39,500 1,800 Climbing New York Center
17:55 40.1933 -75.6619 234° Southwest 362 417 40,600 900 Climbing New York Center
17:56 40.1286 -75.7689 232° Southwest 357 411 41,300 900 Climbing New York Center
17:57 40.0719 -75.8733 235° Southwest 357 411 42,400 1,020 Climbing New York Center
17:58 40.0158 -75.9667 232° Southwest 365 420 43,400 960 Climbing New York Center
17:59 39.9547 -76.0733 233° Southwest 370 426 44,400 780 Climbing New York Center
18:00 39.9000 -76.1775 236° Southwest 364 419 45,000 300 Climbing New York Center
18:01 39.8217 -76.2931 229° Southwest 372 428 45,000  Level New York Center
18:02 39.7603 -76.4017 234° Southwest 382 440 45,000  Level New York Center
18:03 39.6786 -76.5325 231° Southwest 379 436 45,000  Level Washington Center
18:04 39.6175 -76.6394 233° Southwest 384 442 45,000  Level Washington Center
18:05 39.5519 -76.7461 231° Southwest 384 442 45,000  Level Washington Center
18:06 39.4883 -76.8553 233° Southwest 389 448 45,000  Level Washington Center
18:07 39.4244 -76.9617 232° Southwest 389 448 45,000  Level Washington Center
18:08 39.3544 -77.0786 232° Southwest 389 448 45,000  Level Washington Center
18:09 39.2969 -77.1711 231° Southwest 389 448 45,000  Level Washington Center
18:10 39.2331 -77.2769 232° Southwest 389 448 45,000  Level Washington Center
18:11 39.1689 -77.3853 233° Southwest 389 448 45,000  Level Washington Center
18:12 39.1047 -77.4908 232° Southwest 389 448 45,000  Level Washington Center
18:13 39.0386 -77.5933 230° Southwest 389 448 45,000  Level Washington Center
18:14 38.9678 -77.7089 232° Southwest 384 442 45,000 120 Level Washington Center
18:15 38.9119 -77.8033 233° Southwest 384 442 45,300 360 Climbing Washington Center
18:16 38.8386 -77.9264 233° Southwest 392 451 45,800 300 Climbing Washington Center
18:17 38.7742 -78.0281 231° Southwest 392 451 46,000 60 Climbing Washington Center
18:18 38.7072 -78.1350 231° Southwest 387 445 46,000  Level Washington Center
18:19 38.6425 -78.2392 232° Southwest 387 445 46,000  Level Washington Center
18:20 38.5775 -78.3431 231° Southwest 387 445 46,000  Level Washington Center
18:21 38.5125 -78.4467 231° Southwest 387 445 46,000  Level Washington Center
18:22 38.4475 -78.5503 231° Southwest 387 445 46,000  Level Washington Center
18:23 38.3825 -78.6511 231° Southwest 387 445 46,000  Level Washington Center
18:24 38.3172 -78.7542 231° Southwest 387 445 46,000  Level Washington Center
18:25 38.2581 -78.8575 234° Southwest 387 445 46,000  Level Washington Center
18:26 38.1928 -78.9603 231° Southwest 381 438 46,000  Level Washington Center
18:27 38.1294 -79.0631 232° Southwest 381 438 46,000  Level Washington Center
18:28 38.0683 -79.1525 229° Southwest 386 444 46,000  Level Washington Center
18:29 38.0028 -79.2547 231° Southwest 381 438 46,000  Level Washington Center
18:30 37.9392 -79.3544 231° Southwest 381 438 46,000  Level Washington Center
18:31 37.8667 -79.4664 231° Southwest 381 438 46,000  Level Washington Center
18:32 37.8050 -79.5633 231° Southwest 375 432 46,100 240 Climbing Washington Center
18:33 37.7411 -79.6650 232° Southwest 375 432 46,600 360 Climbing Washington Center
18:34 37.6756 -79.7533 227° Southwest 359 413 46,900 180 Climbing Washington Center
18:35 37.6183 -79.8392 230° Southwest 355 409 47,000  Climbing Washington Center
18:36 37.5519 -79.9456 232° Southwest 369 425 47,000  Level Washington Center
18:37 37.4769 -80.0564 230° Southwest 379 436 47,000  Level Washington Center
18:40 37.3147 -80.2944 229° Southwest 369 425 47,000  Level Atlanta Center
18:41 37.2450 -80.4019 231° Southwest 382 440 47,000  Level Atlanta Center
18:42 37.1731 -80.5069 229° Southwest 394 453 47,000  Level Atlanta Center
18:43 37.1111 -80.5981 230° Southwest 394 453 47,000  Level Atlanta Center
18:44 37.0431 -80.6972 229° Southwest 394 453 47,000  Level Atlanta Center
18:45 36.9747 -80.7989 230° Southwest 394 453 47,000  Level Atlanta Center
18:46 36.9064 -80.9003 230° Southwest 389 448 47,000  Level Atlanta Center
18:47 36.8322 -81.0097 230° Southwest 389 448 47,000  Level Atlanta Center
18:48 36.7758 -81.0922 230° Southwest 389 448 47,000  Level Atlanta Center
18:49 36.6972 -81.2089 230° Southwest 382 440 47,000  Level Atlanta Center
18:50 36.6308 -81.3122 231° Southwest 387 445 47,000  Level Atlanta Center
18:51 36.5619 -81.4153 230° Southwest 387 445 47,000  Level Atlanta Center
18:52 36.4892 -81.5158 228° Southwest 387 445 47,000  Level Atlanta Center
18:53 36.4203 -81.6186 230° Southwest 382 440 47,000  Level Atlanta Center
18:54 36.3511 -81.7161 229° Southwest 382 440 47,000  Level Atlanta Center
18:55 36.2842 -81.8158 230° Southwest 383 441 47,000  Level Atlanta Center
18:56 36.2131 -81.9156 229° Southwest 383 441 47,000  Level Atlanta Center
18:57 36.1481 -82.0125 230° Southwest 383 441 47,000  Level Atlanta Center
18:58 36.0764 -82.1119 228° Southwest 383 441 47,000  Level Atlanta Center
18:59 36.0072 -82.2111 229° Southwest 389 448 47,000  Level Atlanta Center
19:00 35.9417 -82.2947 226° Southwest 383 441 47,000  Level Atlanta Center
19:01 35.8742 -82.3908 229° Southwest 378 435 47,000  Level Atlanta Center
19:02 35.8044 -82.4872 228° Southwest 378 435 47,000  Level Atlanta Center
19:03 35.7367 -82.5856 230° Southwest 378 435 47,000  Level Atlanta Center
19:04 35.6608 -82.6867 227° Southwest 373 429 47,000  Level Atlanta Center
19:05 35.5928 -82.7822 229° Southwest 373 429 47,000  Level Atlanta Center
19:06 35.5250 -82.8803 230° Southwest 373 429 47,000  Level Atlanta Center
19:07 35.4569 -82.9756 229° Southwest 373 429 47,000  Level Atlanta Center
19:08 35.3869 -83.0708 228° Southwest 373 429 47,000  Level Atlanta Center
19:09 35.3189 -83.1658 229° Southwest 378 435 47,000  Level Atlanta Center
19:10 35.2525 -83.2581 229° Southwest 378 435 47,000  Level Atlanta Center
19:11 35.1864 -83.3500 229° Southwest 378 435 47,000  Level Atlanta Center
19:12 35.1158 -83.4472 228° Southwest 378 435 47,000  Level Atlanta Center
19:13 35.0475 -83.5414 228° Southwest 378 435 47,000  Level Atlanta Center
19:14 34.9853 -83.6256 228° Southwest 373 429 47,000  Level Atlanta Center
19:15 34.9083 -83.7272 227° Southwest 367 422 47,000  Level Atlanta Center
19:16 34.8397 -83.8186 228° Southwest 372 428 47,000  Level Atlanta Center
19:17 34.7750 -83.9072 228° Southwest 379 436 47,000  Level Atlanta Center
19:18 34.7083 -84.0008 229° Southwest 379 436 47,000  Level Atlanta Center
19:19 34.6417 -84.0892 227° Southwest 373 429 47,000  Level Atlanta Center
19:20 34.5728 -84.1825 228° Southwest 373 429 47,000  Level Atlanta Center
19:21 34.5017 -84.2783 228° Southwest 373 429 47,000  Level Atlanta Center
19:22 34.4325 -84.3711 228° Southwest 373 429 47,000  Level Atlanta Center
19:23 34.3633 -84.4642 228° Southwest 373 429 47,000  Level Atlanta Center
19:24 34.2942 -84.5592 229° Southwest 373 429 47,000  Level Atlanta Center
19:25 34.2228 -84.6569 229° Southwest 379 436 47,000  Level Atlanta Center
19:26 34.1511 -84.7517 228° Southwest 386 444 47,000  Level Atlanta Center
19:27 34.0797 -84.8464 228° Southwest 386 444 47,000  Level Atlanta Center
19:28 34.0142 -84.9461 232° Southwest 386 444 47,000  Level Atlanta Center
19:29 33.9489 -85.0406 230° Southwest 371 427 47,000  Level Atlanta Center
19:30 33.8811 -85.1397 231° Southwest 377 434 47,000  Level Atlanta Center
19:31 33.8092 -85.2464 231° Southwest 377 434 47,000  Level Atlanta Center
19:32 33.7414 -85.3428 230° Southwest 377 434 47,000  Level Atlanta Center
19:33 33.6736 -85.4417 231° Southwest 377 434 47,000  Level Atlanta Center
19:34 33.6056 -85.5403 230° Southwest 377 434 47,000  Level Atlanta Center
19:35 33.5397 -85.6364 231° Southwest 377 434 47,000  Level Atlanta Center
19:36 33.4694 -85.7322 229° Southwest 377 434 47,000  Level Atlanta Center
19:37 33.4100 -85.8106 228° Southwest 377 434 47,000  Level Atlanta Center
19:38 33.3417 -85.9061 229° Southwest 372 428 47,000  Level Atlanta Center
19:39 33.2756 -86.0067 232° Southwest 377 434 47,000  Level Atlanta Center
19:40 33.2050 -86.1044 229° Southwest 377 434 47,000  Level Atlanta Center
19:41 33.1303 -86.2092 230° Southwest 377 434 47,000  Level Atlanta Center
19:42 33.0703 -86.2969 231° Southwest 377 434 47,000  Level Atlanta Center
19:43 33.0017 -86.3944 230° Southwest 384 442 47,000  Level Atlanta Center
19:44 32.9308 -86.4889 228° Southwest 384 442 47,000  Level Atlanta Center
19:45 32.8642 -86.5886 232° Southwest 384 442 47,000  Level Atlanta Center
19:46 32.7931 -86.6853 229° Southwest 384 442 47,000  Level Atlanta Center
19:47 32.7244 -86.7794 229° Southwest 384 442 47,000  Level Atlanta Center
19:48 32.6531 -86.8808 230° Southwest 394 453 47,000  Level Atlanta Center
19:49 32.5861 -86.9750 230° Southwest 389 448 47,000  Level Atlanta Center
19:50 32.5150 -87.0711 229° Southwest 389 448 47,000  Level Atlanta Center
19:51 32.4439 -87.1644 228° Southwest 389 448 47,000  Level Atlanta Center
19:52 32.3767 -87.2606 230° Southwest 396 456 47,000  Level Atlanta Center
19:53 32.3094 -87.3589 231° Southwest 396 456 47,000  Level Atlanta Center
19:54 32.2400 -87.4522 229° Southwest 390 449 47,000  Level Atlanta Center
19:55 32.1686 -87.5475 229° Southwest 390 449 47,000  Level Atlanta Center
19:56 32.0969 -87.6403 228° Southwest 390 449 47,000  Level Atlanta Center
19:57 32.0336 -87.7358 232° Southwest 390 449 47,000  Level Atlanta Center
19:58 31.9639 -87.8308 229° Southwest 390 449 47,000  Level Atlanta Center
19:59 31.8325 -87.9967 227° Southwest 383 441 47,000  Level Memphis Center
20:00 31.7619 -88.0908 229° Southwest 384 442 47,000  Level Memphis Center
20:01 31.6925 -88.1850 229° Southwest 383 441 47,000  Level Memphis Center
20:03 31.6089 -88.2972 229° Southwest 383 441 47,000  Level Memphis Center
20:04 31.5389 -88.3903 229° Southwest 383 441 47,000  Level Memphis Center
20:05 31.4694 -88.4842 229° Southwest 383 441 47,000  Level Memphis Center
20:06 31.3833 -88.5950 228° Southwest 388 447 47,000  Level Houston Center
20:07 31.3131 -88.6889 229° Southwest 387 445 47,000  Level Houston Center
20:08 31.2283 -88.8000 228° Southwest 384 442 47,000  Level Houston Center
20:09 31.1567 -88.8936 228° Southwest 388 447 47,000  Level Houston Center
20:10 31.0889 -88.9825 228° Southwest 388 447 47,000  Level Houston Center
20:11 31.0178 -89.0772 229° Southwest 388 447 47,000  Level Houston Center
20:12 30.9456 -89.1711 228° Southwest 389 448 47,000 -120 Level Houston Center
20:13 30.8594 -89.2844 229° Southwest 389 448 46,800 -300 Descending Houston Center
20:14 30.7856 -89.3778 227° Southwest 392 451 46,400 -420 Descending Houston Center
20:15 30.7119 -89.4736 228° Southwest 396 456 46,000 -300 Descending Houston Center
20:16 30.6389 -89.5700 229° Southwest 398 458 45,800 -300 Descending Houston Center
20:17 30.5647 -89.6653 228° Southwest 398 458 45,500 -420 Descending Houston Center
20:18 30.4925 -89.7608 229° Southwest 398 458 45,000 -300 Descending Houston Center
20:19 30.4092 -89.8600 226° Southwest 404 465 45,000  Level Houston Center
20:20 30.3306 -89.9644 229° Southwest 413 475 45,000  Level Houston Center
20:21 30.2575 -90.0586 228° Southwest 399 459 45,000  Level Houston Center
20:22 30.1833 -90.1522 228° Southwest 397 457 45,000  Level Houston Center
20:23 30.0942 -90.2644 227° Southwest 397 457 45,000  Level Houston Center
20:24 30.0389 -90.3725 239° Southwest 394 453 45,000  Level Houston Center
20:25 30.0058 -90.4881 252° West 382 440 45,000  Level Houston Center
20:26 29.9756 -90.6050 253° West 382 440 45,000  Level Houston Center
20:27 29.9433 -90.7219 252° West 382 440 45,000  Level Houston Center
20:28 29.9103 -90.8411 252° West 389 448 45,000  Level Houston Center
20:30 29.8786 -90.9597 253° West 388 447 45,000  Level Houston Center
20:31 29.8397 -91.0997 252° West 384 442 45,000  Level Houston Center
20:32 29.8075 -91.2156 252° West 383 441 45,000  Level Houston Center
20:33 29.7750 -91.3328 252° West 383 441 45,000  Level Houston Center
20:34 29.7425 -91.4506 252° West 386 444 45,000  Level Houston Center
20:35 29.7108 -91.5678 253° West 386 444 45,000  Level Houston Center
20:36 29.6778 -91.6839 252° West 383 441 45,000  Level Houston Center
20:37 29.6406 -91.8094 251° West 384 442 45,000  Level Houston Center
20:38 29.6072 -91.9264 252° West 384 442 45,000  Level Houston Center
20:39 29.5756 -92.0414 252° West 381 438 45,000  Level Houston Center
20:40 29.5425 -92.1575 252° West 382 440 45,000  Level Houston Center
20:41 29.5086 -92.2739 252° West 383 441 45,000  Level Houston Center
20:42 29.4683 -92.4125 252° West 382 440 45,000  Level Houston Center
20:43 29.4358 -92.5281 252° West 382 440 45,000  Level Houston Center
20:44 29.4019 -92.6444 252° West 383 441 45,000  Level Houston Center
20:45 29.3683 -92.7600 252° West 383 441 45,000  Level Houston Center
20:46 29.3344 -92.8764 252° West 384 442 45,000  Level Houston Center
20:47 29.3000 -92.9911 251° West 382 440 45,000  Level Houston Center
20:48 29.2672 -93.1075 252° West 383 441 45,000  Level Houston Center
20:49 29.2333 -93.2233 251° West 383 441 45,000  Level Houston Center
20:50 29.1917 -93.3611 251° West 381 438 45,000  Level Houston Center
20:51 29.1575 -93.4772 251° West 383 441 45,000  Level Houston Center
20:52 29.1228 -93.5931 251° West 385 443 45,000  Level Houston Center
20:53 29.0886 -93.7061 251° West 380 437 45,000  Level Houston Center
20:54 29.0547 -93.8197 251° West 378 435 45,000  Level Houston Center
20:55 29.0158 -93.9472 251° West 381 438 45,000  Level Houston Center
20:56 28.9817 -94.0608 251° West 378 435 45,000  Level Houston Center
20:57 28.9467 -94.1742 251° West 379 436 45,000  Level Houston Center
20:58 28.9122 -94.2875 251° West 377 434 45,000  Level Houston Center
20:59 28.8769 -94.4025 251° West 382 440 45,000  Level Houston Center
21:00 28.8417 -94.5189 251° West 386 444 45,000  Level Houston Center
21:01 28.8056 -94.6336 250° West 384 442 45,000  Level Houston Center
21:02 28.7703 -94.7486 251° West 383 441 45,000  Level Houston Center
21:03 28.7347 -94.8642 251° West 386 444 45,000  Level Houston Center
21:04 28.6986 -94.9811 251° West 388 447 45,000  Level Houston Center
21:05 28.6550 -95.1203 250° West 388 447 45,000  Level Houston Center
21:06 28.6192 -95.2342 250° West 383 441 45,000  Level Houston Center
21:07 28.5833 -95.3486 250° West 383 441 45,000  Level Houston Center
21:08 28.5347 -95.4542 242° Southwest 382 440 45,000 -420 Level Houston Center
21:10 28.4458 -95.5278 216° Southwest 396 456 44,200 -1,140 Descending Houston Center
21:11 28.3561 -95.5961 214° Southwest 390 449 42,700 -1,620 Descending Houston Center
21:12 28.2603 -95.6706 214° Southwest 383 441 41,000 -1,620 Descending Houston Center
21:13 28.1747 -95.7347 213° Southwest 373 429 39,500 -1,500 Descending Houston Center
21:14 28.0842 -95.8044 214° Southwest 386 444 38,000 -780 Descending Houston Center
21:15 27.9914 -95.8744 214° Southwest 397 457 38,000  Level Houston Center
21:16 27.8986 -95.9453 214° Southwest 402 463 38,000 -120 Level Houston Center
21:17 27.8061 -96.0153 214° Southwest 400 460 37,800 -960 Descending Houston Center
21:18 27.7147 -96.0839 214° Southwest 396 456 36,100 -1,740 Descending Houston Center
21:19 27.6211 -96.1567 215° Southwest 405 466 34,300 -1,980 Descending Houston Center
21:20 27.5053 -96.2419 213° Southwest 412 474 32,100 -1,980 Descending Houston Center
21:21 27.4097 -96.3147 214° Southwest 413 475 30,300 -1,800 Descending Houston Center
21:22 27.3161 -96.3850 214° Southwest 409 471 28,500 -1,740 Descending Houston Center
21:23 27.2258 -96.4525 214° Southwest 397 457 26,800 -1,680 Descending Houston Center
21:24 27.1383 -96.5178 214° Southwest 391 450 25,100 -1,680 Descending Houston Center
21:26 26.9611 -96.6506 214° Southwest 381 438 21,700 -1,680 Descending Houston Center
21:27 26.8753 -96.7144 214° Southwest 373 429 20,100 -1,740 Descending Houston Center
21:27 26.8422 -96.7397 214° Southwest 369 425 19,400 -1,740 Descending Houston Center
21:28 26.7897 -96.7775 213° Southwest 369 425 18,500 -1,320 Descending Houston Center
21:28 26.7892 -96.7772 156° South 371 427 18,500 -1,800 Level Houston Center
21:29 26.6944 -96.8475 214° Southwest 360 414 16,700 -1,920 Descending Houston Center
21:29 26.6922 -96.8503 228° Southwest 357 411 16,600 -600 Descending Houston Center
21:30 26.6131 -96.9106 214° Southwest 352 405 16,100 -540 Descending Houston Center
21:30 26.6097 -96.9147 228° Southwest 353 406 16,100 -1,380 Level Houston Center
21:31 26.5411 -96.9814 221° Southwest 353 406 14,700 -1,620 Descending Houston Center
21:31 26.5372 -96.9872 233° Southwest 351 404 14,500 -1,800 Descending Houston Center
21:32 26.4675 -97.0550 221° Southwest 355 409 12,900 -1,680 Descending Houston Center
21:32 26.4617 -97.0586 209° Southwest 354 407 12,800 -1,620 Descending Houston Center
21:33 26.3867 -97.1289 220° Southwest 331 381 11,100 -1,560 Descending Houston Center
21:34 26.3342 -97.1811 222° Southwest 288 331 9,900 -1,380 Descending Houston Center
21:34 26.3247 -97.1881 213° Southwest 300 345 9,700 -1,440 Descending Houston Center
21:35 26.2750 -97.2358 221° Southwest 272 313 8,500 -1,380 Descending Houston Center
21:35 26.2667 -97.2433 219° Southwest 279 321 8,300 -1,320 Descending Houston Center
21:36 26.2197 -97.2878 220° Southwest 266 306 7,200 -1,260 Descending Houston Center
21:36 26.2117 -97.2950 219° Southwest 261 300 7,000 -1,680 Descending Houston Center
21:37 26.1628 -97.3422 221° Southwest 247 284 5,500 -1,680 Descending Houston Center
21:37 26.1556 -97.3486 218° Southwest 248 285 5,300 -1,620 Descending Houston Center
21:38 26.1114 -97.3914 221° Southwest 242 278 3,900 -1,620 Descending Houston Center
21:38 26.1033 -97.3972 213° Southwest 245 282 3,700 -1,320 Descending Houston Center
21:39 26.0519 -97.4453 220° Southwest 243 280 2,400 -960 Descending Houston Center
21:40 26.0122 -97.4839 221° Southwest 224 258 2,000 -420 Descending Houston Center
21:40 26.0058 -97.4889 215° Southwest 223 257 2,000 -300 Level Houston Center
21:41 25.9661 -97.4883 179° South 156 180 1,700 -600 Descending Houston Center
21:42 25.9472 -97.4672 135° Southeast 104 120 1,000 -900 Descending Houston Center
21:42 25.9411 -97.4606 136° Southeast 120 138 800 -600 Descending Houston Center
21:43 25.9214 -97.4400 137° Southeast 116 133 300 -540 Descending Houston Center
21:45 25.9068 -97.4258 174° South  Level Estimated